createdAt,value
2018-07-21T03:54:48.342Z,33.75
2018-07-21T03:55:47.985Z,39.38
2018-07-21T03:56:53.277Z,39.38
2018-07-21T05:02:51.647Z,196.88
2018-07-21T05:03:50.756Z,196.88
2018-07-21T07:13:40.177Z,433.13
2018-07-21T07:14:41.040Z,444.38
2018-07-21T07:16:41.202Z,489.38
2018-07-21T07:17:40.696Z,517.50
2018-07-21T07:28:51.333Z,534.38
2018-07-21T07:30:49.652Z,506.25
2018-07-21T08:32:53.233Z,534.38
2018-07-21T08:35:41.697Z,540.00
2018-07-21T08:47:02.547Z,607.50
2018-07-21T08:51:31.294Z,613.13
2018-07-21T08:52:29.155Z,607.50
2018-07-21T08:53:30.547Z,613.13
2018-07-21T08:54:29.100Z,613.13
2018-07-21T08:55:32.741Z,613.13
2018-07-21T08:56:29.625Z,613.13
2018-07-21T08:57:27.069Z,613.13
2018-07-21T09:28:24.691Z,607.50
2018-07-21T09:30:37.186Z,641.25
2018-07-21T09:32:23.416Z,663.75
2018-07-21T09:35:16.348Z,703.13
2018-07-21T10:24:35.571Z,433.13
2018-07-21T10:28:01.891Z,455.63
2018-07-21T10:54:39.045Z,534.38
2018-07-21T11:23:05.528Z,658.13
2018-07-21T11:33:52.633Z,540.00
2018-07-21T11:34:27.099Z,528.75
2018-07-21T11:49:29.114Z,500.63
2018-07-21T11:50:28.561Z,495.00
2018-07-21T11:51:35.124Z,495.00
2018-07-21T11:53:26.404Z,500.63
2018-07-21T11:54:25.006Z,500.63
2018-07-21T12:11:27.673Z,607.50
2018-07-21T12:15:17.156Z,630.00
2018-07-21T13:18:21.015Z,759.38
2018-07-21T13:19:31.393Z,753.75
2018-07-21T13:27:00.373Z,770.63
2018-07-21T13:28:06.771Z,748.13
2018-07-21T13:30:03.766Z,697.50
2018-07-21T13:31:16.367Z,663.75
2018-07-21T13:32:02.242Z,630.00
2018-07-21T13:33:09.017Z,590.63
2018-07-21T13:36:46.196Z,500.63
2018-07-21T13:37:46.463Z,495.00
2018-07-21T13:38:46.475Z,489.38
2018-07-21T13:39:46.671Z,483.75
2018-07-21T13:40:46.806Z,483.75
2018-07-21T13:41:46.835Z,483.75
2018-07-21T13:42:47.072Z,483.75
2018-07-21T13:43:47.339Z,483.75
2018-07-21T13:44:47.415Z,478.13
2018-07-21T13:45:47.619Z,489.38
2018-07-21T13:46:47.953Z,483.75
2018-07-21T13:49:40.050Z,495.00
2018-07-21T13:50:38.988Z,500.63
2018-07-21T14:20:35.064Z,388.13
2018-07-21T14:21:50.433Z,388.13
2018-07-21T14:22:52.973Z,382.50
2018-07-21T14:23:32.536Z,382.50
2018-07-21T14:24:33.641Z,388.13
2018-07-21T14:33:24.424Z,523.13
2018-07-21T14:34:31.701Z,540.00
2018-07-21T14:35:31.170Z,551.25
2018-07-21T14:36:12.908Z,562.50
2018-07-21T14:37:54.185Z,573.75
2018-07-21T14:39:10.628Z,585.00
2018-07-21T14:41:07.204Z,601.88
2018-07-21T14:43:02.367Z,613.13
2018-07-21T14:44:00.372Z,618.75
2018-07-21T14:45:00.509Z,630.00
2018-07-21T14:46:00.397Z,646.88
2018-07-21T14:47:00.680Z,658.13
2018-07-21T14:48:00.669Z,675.00
2018-07-21T14:49:01.124Z,691.88
2018-07-21T14:50:01.611Z,703.13
2018-07-21T14:51:01.547Z,703.13
2018-07-21T14:52:01.630Z,714.38
2018-07-21T14:53:02.035Z,731.25
2018-07-21T14:54:02.220Z,731.25
2018-07-21T14:55:02.340Z,725.63
2018-07-21T14:56:02.929Z,725.63
2018-07-21T14:57:03.961Z,720.00
2018-07-21T14:58:04.389Z,720.00
2018-07-21T14:59:03.657Z,725.63
2018-07-21T15:00:04.170Z,725.63
2018-07-21T15:01:08.850Z,725.63
2018-07-21T15:02:04.822Z,731.25
2018-07-21T15:03:04.423Z,736.88
2018-07-21T15:31:18.042Z,1710.00
2018-07-21T15:32:18.339Z,1794.38
2018-07-21T15:33:17.936Z,1833.75
2018-07-21T15:34:18.465Z,1935.00
2018-07-21T15:35:19.355Z,2086.88
2018-07-21T15:36:19.797Z,2193.75
2018-07-21T15:37:25.031Z,2266.88
2018-07-21T15:39:57.080Z,2227.50
2018-07-21T15:40:52.279Z,2221.88
2018-07-21T15:41:55.281Z,2323.13
2018-07-21T15:43:54.390Z,2368.13
2018-07-21T15:45:41.448Z,2430.00
2018-07-21T15:45:59.647Z,2480.63
2018-07-21T15:46:55.465Z,2531.25
2018-07-21T15:48:54.767Z,2098.13
2018-07-21T15:49:56.574Z,2250.00
2018-07-21T15:50:56.851Z,2340.00
2018-07-21T15:51:55.047Z,2469.38
2018-07-21T15:52:54.359Z,2508.75
2018-07-21T15:53:58.530Z,2570.63
2018-07-21T15:54:52.922Z,2295.00
2018-07-21T15:55:53.250Z,2210.63
2018-07-21T15:56:53.112Z,2317.50
2018-07-21T15:57:53.358Z,2401.88
2018-07-21T15:58:53.557Z,2570.63
2018-07-21T15:59:53.680Z,2638.13
2018-07-21T16:00:53.925Z,2615.63
2018-07-21T16:01:54.088Z,2677.50
2018-07-21T16:02:54.361Z,2677.50
2018-07-21T16:03:54.829Z,2671.88
2018-07-21T16:04:55.374Z,2553.75
2018-07-21T16:05:55.164Z,2548.13
2018-07-21T16:06:55.908Z,2531.25
2018-07-21T16:07:55.263Z,2385.00
2018-07-21T16:08:55.492Z,1929.38
2018-07-21T16:09:55.566Z,1710.00
2018-07-21T16:10:55.872Z,1704.38
2018-07-21T16:11:56.083Z,1676.25
2018-07-21T16:12:56.101Z,1974.38
2018-07-21T16:13:56.387Z,2216.25
2018-07-21T16:15:03.865Z,2193.75
2018-07-21T16:15:56.710Z,2278.13
2018-07-21T16:16:57.048Z,2300.63
2018-07-21T16:17:57.082Z,2317.50
2018-07-21T16:18:57.220Z,2295.00
2018-07-21T16:19:57.470Z,2311.88
2018-07-21T16:20:57.659Z,2272.50
2018-07-21T16:21:57.855Z,2210.63
2018-07-21T16:22:58.078Z,2165.63
2018-07-21T16:23:58.169Z,1968.75
2018-07-21T16:24:58.390Z,1552.50
2018-07-21T16:25:58.887Z,1771.88
2018-07-21T16:26:58.891Z,1710.00
2018-07-21T16:27:59.340Z,1575.00
2018-07-21T16:28:59.508Z,1620.00
2018-07-21T16:29:59.822Z,1676.25
2018-07-21T16:30:59.699Z,1963.13
2018-07-21T16:31:59.897Z,1608.75
2018-07-21T16:34:06.051Z,1670.63
2018-07-21T16:35:03.626Z,1732.50
2018-07-21T16:36:03.276Z,1878.75
2018-07-21T16:37:03.643Z,1530.00
2018-07-21T16:38:05.130Z,1535.63
2018-07-21T16:39:04.239Z,1940.63
2018-07-21T16:40:05.204Z,1929.38
2018-07-21T16:41:01.661Z,1906.88
2018-07-21T16:42:01.918Z,1856.25
2018-07-21T16:43:01.981Z,1704.38
2018-07-21T16:44:02.163Z,1513.13
2018-07-21T16:45:02.336Z,1299.38
2018-07-21T16:46:02.664Z,1237.50
2018-07-21T16:47:02.779Z,838.13
2018-07-21T16:48:02.884Z,579.38
2018-07-21T16:49:03.020Z,534.38
2018-07-21T16:50:04.074Z,500.63
2018-07-21T16:51:03.449Z,472.50
2018-07-21T16:52:03.643Z,483.75
2018-07-21T16:53:03.864Z,495.00
2018-07-21T16:54:04.133Z,483.75
2018-07-21T16:55:04.904Z,483.75
2018-07-21T16:56:04.428Z,466.88
2018-07-21T16:57:04.604Z,455.63
2018-07-21T16:58:04.791Z,444.38
2018-07-21T16:59:04.944Z,438.75
2018-07-21T17:00:05.332Z,433.13
2018-07-21T17:01:05.278Z,421.88
2018-07-21T17:02:05.651Z,433.13
2018-07-21T17:03:05.703Z,444.38
2018-07-21T17:04:10.517Z,461.25
2018-07-21T17:05:06.183Z,450.00
2018-07-21T17:06:06.413Z,421.88
2018-07-21T17:07:07.953Z,416.25
2018-07-21T17:12:25.660Z,399.38
2018-07-21T17:14:16.508Z,416.25
2018-07-21T17:16:32.395Z,444.38
2018-07-21T17:17:53.704Z,421.88
2018-07-21T17:18:09.411Z,427.50
2018-07-21T17:19:09.020Z,433.13
2018-07-21T17:20:06.381Z,438.75
2018-07-21T17:21:08.822Z,444.38
2018-07-21T17:22:05.462Z,455.63
2018-07-21T17:23:04.577Z,455.63
2018-07-21T17:24:03.571Z,455.63
2018-07-21T17:25:03.672Z,461.25
2018-07-21T17:26:03.898Z,450.00
2018-07-21T17:27:04.078Z,433.13
2018-07-21T17:28:04.279Z,427.50
2018-07-21T17:29:04.430Z,421.88
2018-07-21T17:30:04.671Z,421.88
2018-07-21T17:31:04.713Z,416.25
2018-07-21T17:32:04.987Z,410.63
2018-07-21T17:33:05.134Z,405.00
2018-07-21T17:34:05.313Z,405.00
2018-07-21T17:35:05.498Z,405.00
2018-07-21T17:36:05.792Z,399.38
2018-07-21T17:37:05.965Z,393.75
2018-07-21T17:38:06.124Z,388.13
2018-07-21T17:39:06.290Z,388.13
2018-07-21T17:40:06.445Z,388.13
2018-07-21T17:41:06.633Z,382.50
2018-07-21T17:42:06.833Z,382.50
2018-07-21T17:43:07.086Z,382.50
2018-07-21T17:44:07.267Z,382.50
2018-07-21T17:45:07.311Z,382.50
2018-07-21T17:46:07.459Z,382.50
2018-07-21T17:47:07.670Z,376.88
2018-07-21T17:48:07.897Z,371.25
2018-07-21T17:49:08.050Z,365.63
2018-07-21T17:50:08.222Z,360.00
2018-07-21T17:51:08.396Z,348.75
2018-07-21T17:52:08.632Z,348.75
2018-07-21T17:53:08.677Z,331.88
2018-07-21T17:54:08.962Z,326.25
2018-07-21T17:55:09.106Z,320.63
2018-07-21T17:56:09.384Z,315.00
2018-07-21T17:57:09.527Z,298.13
2018-07-21T17:58:09.918Z,286.88
2018-07-21T17:59:09.855Z,275.63
2018-07-21T18:00:10.168Z,264.38
2018-07-21T18:01:10.358Z,253.13
2018-07-21T18:02:10.471Z,241.88
2018-07-21T18:03:10.653Z,230.63
2018-07-21T18:04:10.770Z,225.00
2018-07-21T18:05:10.978Z,219.38
2018-07-21T18:06:11.096Z,213.75
2018-07-21T18:07:11.371Z,202.50
2018-07-21T18:08:11.495Z,196.88
2018-07-21T18:09:11.719Z,185.63
2018-07-21T18:10:12.050Z,180.00
2018-07-21T18:11:12.082Z,174.38
2018-07-21T18:12:13.176Z,168.75
2018-07-21T18:13:12.599Z,163.13
2018-07-21T18:14:12.631Z,157.50
2018-07-21T18:15:12.791Z,151.88
2018-07-21T18:16:13.051Z,151.88
2018-07-21T18:17:13.241Z,151.88
2018-07-21T18:18:13.534Z,140.63
2018-07-21T18:19:13.590Z,135.00
2018-07-21T18:20:13.951Z,135.00
2018-07-21T18:21:13.953Z,129.38
2018-07-21T18:22:14.335Z,123.75
2018-07-21T18:23:14.624Z,123.75
2018-07-21T18:24:14.734Z,118.13
2018-07-21T18:25:14.887Z,112.50
2018-07-21T18:26:14.883Z,112.50
2018-07-21T18:27:15.062Z,112.50
2018-07-21T18:28:15.324Z,106.88
2018-07-21T18:29:15.523Z,106.88
2018-07-21T18:30:15.614Z,106.88
2018-07-21T18:31:15.735Z,101.25
2018-07-21T18:32:15.787Z,101.25
2018-07-21T18:33:16.064Z,95.63
2018-07-21T18:34:16.224Z,95.63
2018-07-21T18:35:16.367Z,95.63
2018-07-21T18:36:16.588Z,90.00
2018-07-21T18:37:16.799Z,84.38
2018-07-21T18:38:16.837Z,78.75
2018-07-21T18:39:17.109Z,73.13
2018-07-21T18:40:17.161Z,67.50
2018-07-21T18:41:17.466Z,67.50
2018-07-21T18:42:17.658Z,67.50
2018-07-21T18:43:17.734Z,61.88
2018-07-21T18:44:17.974Z,61.88
2018-07-21T18:45:18.133Z,61.88
2018-07-21T18:46:18.339Z,61.88
2018-07-21T18:47:18.421Z,61.88
2018-07-21T18:48:18.704Z,61.88
2018-07-21T18:49:18.735Z,56.25
2018-07-21T18:50:18.951Z,56.25
2018-07-21T18:51:19.062Z,50.63
2018-07-21T18:52:19.205Z,50.63
2018-07-21T18:53:19.423Z,50.63
2018-07-21T18:54:19.547Z,45.00
2018-07-21T18:55:19.836Z,45.00
2018-07-21T18:56:19.983Z,45.00
2018-07-21T18:57:20.082Z,45.00
2018-07-21T18:58:20.363Z,45.00
2018-07-21T18:59:20.480Z,45.00
2018-07-21T19:00:20.647Z,45.00
2018-07-21T19:01:20.902Z,39.38
2018-07-21T19:02:20.991Z,39.38
2018-07-21T19:03:21.205Z,33.75
2018-07-21T19:04:25.892Z,39.38
2018-07-21T19:05:21.657Z,39.38
2018-07-21T19:06:21.876Z,33.75
2018-07-21T19:07:21.955Z,33.75
2018-07-21T19:08:22.131Z,33.75
2018-07-21T19:09:22.382Z,28.13
2018-07-21T19:10:22.535Z,28.13
2018-07-21T19:11:22.802Z,28.13
2018-07-21T19:12:22.961Z,22.50
2018-07-21T19:13:23.080Z,22.50
2018-07-21T19:14:23.321Z,16.88
2018-07-21T19:15:23.450Z,16.88
2018-07-21T19:16:23.544Z,11.25
2018-07-21T19:17:23.739Z,11.25
2018-07-21T19:18:24.827Z,5.63
2018-07-21T19:19:24.113Z,5.63
2018-07-21T19:20:24.305Z,5.63
2018-07-21T19:21:24.481Z,5.63
2018-07-21T19:22:24.636Z,5.63
2018-07-21T19:23:24.804Z,5.63
2018-07-21T19:24:24.987Z,5.63
2018-07-21T19:25:25.106Z,0.00
2018-07-21T19:26:25.309Z,0.00
2018-07-21T19:27:25.401Z,0.00
2018-07-21T19:28:25.602Z,0.00
2018-07-21T19:29:25.749Z,0.00
2018-07-21T19:30:25.953Z,0.00
2018-07-21T19:31:26.155Z,0.00
2018-07-21T19:32:26.299Z,0.00
2018-07-21T19:33:26.517Z,0.00
2018-07-21T19:34:26.644Z,0.00
2018-07-21T19:35:26.944Z,0.00
2018-07-21T19:36:27.184Z,0.00
2018-07-21T19:37:27.220Z,0.00
2018-07-21T19:38:28.310Z,0.00
2018-07-21T19:39:27.751Z,0.00
2018-07-21T19:40:27.929Z,0.00
2018-07-21T19:41:28.130Z,0.00
2018-07-21T19:42:28.316Z,0.00
2018-07-21T19:43:28.543Z,0.00
2018-07-21T19:44:28.673Z,0.00
2018-07-21T19:45:28.836Z,0.00
2018-07-21T19:46:28.992Z,0.00
2018-07-21T19:47:29.288Z,0.00
2018-07-21T19:48:29.417Z,0.00
2018-07-21T19:49:29.482Z,0.00
2018-07-21T19:50:29.728Z,0.00
2018-07-21T19:51:29.918Z,0.00
2018-07-21T19:52:30.170Z,0.00
2018-07-21T19:53:30.404Z,0.00
2018-07-21T19:54:30.528Z,0.00
2018-07-21T19:55:30.975Z,0.00
2018-07-21T19:56:31.017Z,0.00
2018-07-21T19:57:31.035Z,0.00
2018-07-21T19:58:31.286Z,0.00
2018-07-21T19:59:31.498Z,0.00
2018-07-21T20:00:31.740Z,0.00
2018-07-21T20:01:31.952Z,0.00
2018-07-21T20:02:32.010Z,0.00
2018-07-21T20:03:32.172Z,0.00
2018-07-21T20:04:32.424Z,0.00
2018-07-21T20:05:32.600Z,0.00
2018-07-21T20:06:32.705Z,0.00
2018-07-21T20:07:32.847Z,0.00
2018-07-21T20:08:33.126Z,0.00
2018-07-21T20:09:33.277Z,0.00
2018-07-21T20:10:33.563Z,0.00
2018-07-21T20:11:33.689Z,0.00
2018-07-21T20:12:33.907Z,0.00
2018-07-21T20:13:34.120Z,0.00
2018-07-21T20:14:34.365Z,0.00
2018-07-21T20:15:34.448Z,0.00
2018-07-21T20:16:34.955Z,0.00
2018-07-21T20:17:34.922Z,0.00
2018-07-21T20:18:35.200Z,0.00
2018-07-21T20:19:35.342Z,0.00
2018-07-21T20:20:35.558Z,0.00
2018-07-21T20:21:35.702Z,0.00
2018-07-21T20:22:35.870Z,0.00
2018-07-21T20:23:35.995Z,0.00
2018-07-21T20:24:36.175Z,0.00
2018-07-21T20:25:36.282Z,0.00
2018-07-21T20:26:36.558Z,0.00
2018-07-21T20:27:36.677Z,0.00
2018-07-21T20:28:36.879Z,0.00
2018-07-21T20:29:36.992Z,0.00
2018-07-21T20:30:37.137Z,0.00
2018-07-21T20:31:37.365Z,0.00
2018-07-21T20:32:37.555Z,0.00
2018-07-21T20:33:37.681Z,0.00
2018-07-21T20:34:37.774Z,0.00
2018-07-21T20:35:37.991Z,0.00
2018-07-21T20:36:38.120Z,0.00
2018-07-21T20:37:38.335Z,0.00
2018-07-21T20:38:38.677Z,0.00
2018-07-21T20:39:38.797Z,0.00
2018-07-21T20:40:39.038Z,0.00
2018-07-21T20:41:39.163Z,0.00
2018-07-21T20:42:39.424Z,0.00
2018-07-21T20:43:39.513Z,0.00
2018-07-21T20:44:39.619Z,0.00
2018-07-21T20:45:39.884Z,0.00
2018-07-21T20:46:40.119Z,0.00
2018-07-21T20:47:40.197Z,0.00
2018-07-21T20:48:40.537Z,0.00
2018-07-21T20:49:40.614Z,0.00
2018-07-21T20:50:40.983Z,0.00
2018-07-21T20:51:41.065Z,0.00
2018-07-21T20:52:41.157Z,0.00
2018-07-21T20:53:41.456Z,0.00
2018-07-21T20:54:41.476Z,0.00
2018-07-21T20:55:41.695Z,0.00
2018-07-21T20:56:41.897Z,0.00
2018-07-21T20:57:42.014Z,0.00
2018-07-21T20:58:42.191Z,0.00
2018-07-21T20:59:42.408Z,0.00
2018-07-21T21:00:42.577Z,0.00
2018-07-21T21:01:42.792Z,0.00
2018-07-21T21:02:42.889Z,0.00
2018-07-21T21:03:43.114Z,0.00
2018-07-21T21:04:43.409Z,0.00
2018-07-21T21:05:43.448Z,0.00
2018-07-21T21:06:43.693Z,0.00
2018-07-21T21:07:43.809Z,0.00
2018-07-21T21:08:44.035Z,0.00
2018-07-21T21:09:44.168Z,0.00
2018-07-21T21:10:44.354Z,0.00
2018-07-21T21:11:44.457Z,0.00
2018-07-21T21:12:44.611Z,0.00
2018-07-21T21:13:44.893Z,0.00
2018-07-21T21:14:45.009Z,0.00
2018-07-21T21:15:45.257Z,0.00
2018-07-21T21:16:45.399Z,0.00
2018-07-21T21:17:45.618Z,0.00
2018-07-21T21:18:45.791Z,0.00
2018-07-21T21:19:45.935Z,0.00
2018-07-21T21:20:46.080Z,0.00
2018-07-21T21:21:46.301Z,0.00
2018-07-21T21:22:46.586Z,0.00
2018-07-21T21:23:46.583Z,0.00
2018-07-21T21:24:46.792Z,0.00
2018-07-21T21:25:46.924Z,0.00
2018-07-21T21:26:47.157Z,0.00
2018-07-21T21:27:47.271Z,0.00
2018-07-21T21:28:47.493Z,0.00
2018-07-21T21:29:47.583Z,0.00
2018-07-21T21:30:47.809Z,0.00
2018-07-21T21:31:47.954Z,0.00
2018-07-21T21:32:48.094Z,0.00
2018-07-21T21:33:48.339Z,0.00
2018-07-21T21:34:48.502Z,0.00
2018-07-21T21:35:48.656Z,0.00
2018-07-21T21:36:48.827Z,0.00
2018-07-21T21:37:48.977Z,0.00
2018-07-21T21:38:49.166Z,0.00
2018-07-21T21:39:49.323Z,0.00
2018-07-21T21:40:49.472Z,0.00
2018-07-21T21:41:49.637Z,0.00
2018-07-21T21:42:49.852Z,0.00
2018-07-21T21:43:50.074Z,0.00
2018-07-21T21:44:50.257Z,0.00
2018-07-21T21:45:50.435Z,0.00
2018-07-21T21:46:50.531Z,0.00
2018-07-21T21:47:50.817Z,0.00
2018-07-21T21:48:51.052Z,0.00
2018-07-21T21:49:51.103Z,0.00
